createdAt,value
2022-08-19T00:00:23.603Z,47.66
2022-08-19T00:02:25.143Z,48.00
2022-08-19T00:04:35.802Z,48.36
2022-08-19T00:06:40.288Z,47.97
2022-08-19T00:08:42.962Z,48.12
2022-08-19T00:10:44.819Z,47.92
2022-08-19T00:12:47.149Z,48.05
2022-08-19T00:14:48.856Z,48.48
2022-08-19T00:16:52.335Z,48.02
2022-08-19T00:18:56.396Z,48.17
2022-08-19T00:20:58.437Z,48.62
2022-08-19T00:23:00.128Z,48.55
2022-08-19T00:25:02.154Z,48.69
2022-08-19T00:27:25.561Z,48.53
2022-08-19T00:29:26.278Z,49.08
2022-08-19T00:31:29.022Z,48.64
2022-08-19T00:33:33.511Z,48.88
2022-08-19T00:35:35.394Z,48.70
2022-08-19T00:37:37.378Z,49.16
2022-08-19T00:39:39.153Z,48.80
2022-08-19T00:41:42.366Z,49.30
2022-08-19T00:43:43.956Z,49.40
2022-08-19T00:45:45.599Z,48.85
2022-08-19T00:47:47.266Z,49.30
2022-08-19T00:49:52.916Z,49.07
2022-08-19T00:52:01.203Z,49.50
2022-08-19T00:54:04.287Z,49.26
2022-08-19T00:56:08.223Z,49.55
2022-08-19T00:58:14.246Z,49.51
2022-08-19T01:00:19.561Z,49.10
2022-08-19T01:02:21.361Z,49.17
2022-08-19T01:04:22.888Z,49.54
2022-08-19T01:06:24.537Z,49.53
2022-08-19T01:08:26.203Z,49.77
2022-08-19T01:10:38.127Z,49.60
2022-08-19T01:12:40.697Z,49.84
2022-08-19T01:14:42.237Z,49.43
2022-08-19T01:16:46.620Z,49.72
2022-08-19T01:18:48.242Z,49.86
2022-08-19T01:20:49.921Z,49.55
2022-08-19T01:22:58.233Z,49.71
2022-08-19T01:24:59.962Z,49.83
2022-08-19T01:27:05.733Z,49.92
2022-08-19T01:29:13.196Z,49.76
2022-08-19T01:31:27.254Z,49.81
2022-08-19T01:33:31.854Z,50.28
2022-08-19T01:35:33.640Z,49.94
2022-08-19T01:37:52.371Z,50.13
2022-08-19T01:39:54.592Z,50.12
2022-08-19T01:41:56.302Z,50.14
2022-08-19T01:44:13.543Z,50.40
2022-08-19T01:46:24.606Z,49.97
2022-08-19T01:48:26.669Z,50.27
2022-08-19T01:50:28.676Z,50.42
2022-08-19T01:52:30.294Z,50.60
2022-08-19T01:54:33.025Z,50.48
2022-08-19T01:56:34.684Z,50.31
2022-08-19T01:58:41.703Z,50.35
2022-08-19T02:00:44.471Z,50.30
2022-08-19T02:02:46.312Z,50.44
2022-08-19T02:04:48.857Z,50.46
2022-08-19T02:06:50.395Z,50.79
2022-08-19T02:08:51.986Z,50.34
2022-08-19T02:10:59.065Z,50.45
2022-08-19T02:13:00.720Z,50.66
2022-08-19T02:15:03.376Z,50.55
2022-08-19T02:17:05.129Z,50.35
2022-08-19T02:19:06.867Z,50.53
2022-08-19T02:21:08.856Z,50.55
2022-08-19T02:23:13.797Z,50.76
2022-08-19T02:25:17.804Z,50.62
2022-08-19T02:27:19.445Z,50.42
2022-08-19T02:29:21.610Z,50.44
2022-08-19T02:31:26.664Z,51.11
2022-08-19T02:33:28.273Z,50.81
2022-08-19T02:35:29.724Z,50.79
2022-08-19T02:37:49.940Z,50.50
2022-08-19T02:39:51.592Z,50.80
2022-08-19T02:41:54.209Z,50.64
2022-08-19T02:44:26.462Z,50.60
2022-08-19T02:46:23.135Z,50.63
2022-08-19T02:48:26.840Z,50.70
2022-08-19T02:50:28.701Z,50.79
2022-08-19T02:52:30.234Z,50.85
2022-08-19T02:54:31.825Z,50.62
2022-08-19T02:56:37.021Z,50.92
2022-08-19T02:58:38.944Z,50.57
2022-08-19T03:00:50.195Z,51.01
2022-08-19T03:02:51.879Z,50.56
2022-08-19T03:04:53.441Z,50.93
2022-08-19T03:06:57.530Z,50.84
2022-08-19T03:09:01.071Z,50.40
2022-08-19T03:11:03.063Z,50.88
2022-08-19T03:13:04.881Z,51.08
2022-08-19T03:15:08.378Z,50.71
2022-08-19T03:17:10.337Z,50.76
2022-08-19T03:19:12.262Z,50.75
2022-08-19T03:21:24.885Z,50.94
2022-08-19T03:23:26.535Z,50.80
2022-08-19T03:25:28.152Z,51.01
2022-08-19T03:27:32.979Z,50.96
2022-08-19T03:29:43.928Z,51.17
2022-08-19T03:31:52.593Z,50.91
2022-08-19T03:33:54.811Z,51.20
2022-08-19T03:36:12.330Z,51.18
2022-08-19T03:38:13.959Z,51.29
2022-08-19T03:40:16.608Z,51.50
2022-08-19T03:42:45.452Z,51.43
2022-08-19T03:44:40.041Z,51.36
2022-08-19T03:46:42.346Z,50.99
2022-08-19T03:48:46.240Z,51.12
2022-08-19T03:50:47.733Z,51.28
2022-08-19T03:52:51.648Z,51.11
2022-08-19T03:54:53.377Z,51.11
2022-08-19T03:56:56.936Z,51.35
2022-08-19T03:59:00.633Z,51.32
2022-08-19T04:01:02.177Z,51.46
2022-08-19T04:03:03.832Z,51.50
2022-08-19T04:05:06.419Z,51.33
2022-08-19T04:07:10.364Z,51.51
2022-08-19T04:09:12.519Z,51.48
2022-08-19T04:11:42.672Z,51.31
2022-08-19T04:13:46.047Z,51.65
2022-08-19T04:15:47.615Z,51.63
2022-08-19T04:17:49.566Z,51.53
2022-08-19T04:19:51.040Z,51.51
2022-08-19T04:21:55.208Z,51.32
2022-08-19T04:23:58.136Z,51.34
2022-08-19T04:25:59.771Z,51.72
2022-08-19T04:28:01.556Z,51.49
2022-08-19T04:30:04.764Z,51.49
2022-08-19T04:32:08.984Z,51.62
2022-08-19T04:34:13.194Z,51.50
2022-08-19T04:36:23.447Z,51.83
2022-08-19T04:38:25.142Z,51.65
2022-08-19T04:40:45.230Z,51.63
2022-08-19T04:42:47.066Z,51.91
2022-08-19T04:44:48.946Z,51.59
2022-08-19T04:46:51.995Z,51.50
2022-08-19T04:48:54.546Z,51.77
2022-08-19T04:51:01.226Z,51.90
2022-08-19T04:53:02.846Z,51.62
2022-08-19T04:55:07.055Z,51.82
2022-08-19T04:57:10.766Z,52.23
2022-08-19T04:59:13.007Z,51.72
2022-08-19T05:01:20.878Z,52.11
2022-08-19T05:03:22.657Z,51.94
2022-08-19T05:05:24.449Z,51.87
2022-08-19T05:07:26.181Z,51.96
2022-08-19T05:09:36.139Z,52.17
2022-08-19T05:11:53.746Z,51.99
2022-08-19T05:13:56.062Z,51.78
2022-08-19T05:15:59.904Z,52.16
2022-08-19T05:18:20.048Z,51.96
2022-08-19T05:20:41.645Z,52.35
2022-08-19T05:22:47.488Z,52.43
2022-08-19T05:25:11.224Z,52.19
2022-08-19T05:27:11.420Z,52.04
2022-08-19T05:29:15.800Z,52.09
2022-08-19T05:31:17.432Z,52.26
2022-08-19T05:33:19.658Z,51.86
2022-08-19T05:35:21.273Z,51.86
2022-08-19T05:37:23.768Z,51.94
2022-08-19T05:39:29.337Z,51.89
2022-08-19T05:41:31.712Z,52.16
2022-08-19T05:43:33.501Z,51.81
2022-08-19T05:45:40.134Z,51.97
2022-08-19T05:47:42.130Z,52.31
2022-08-19T05:49:44.063Z,52.22
2022-08-19T05:51:46.074Z,52.02
2022-08-19T05:53:47.640Z,52.10
2022-08-19T05:55:49.249Z,52.00
2022-08-19T05:57:50.851Z,51.74
2022-08-19T05:59:58.254Z,52.46
2022-08-19T06:02:01.650Z,51.90
2022-08-19T06:04:04.436Z,52.29
2022-08-19T06:06:10.172Z,52.00
2022-08-19T06:08:12.045Z,52.09
2022-08-19T06:10:13.676Z,52.06
2022-08-19T06:12:15.337Z,52.21
2022-08-19T06:14:21.469Z,52.26
2022-08-19T06:16:32.589Z,51.75
2022-08-19T06:18:34.483Z,52.29
2022-08-19T06:20:55.029Z,51.88
2022-08-19T06:22:57.286Z,52.14
2022-08-19T06:24:58.835Z,52.33
2022-08-19T06:27:01.502Z,52.22
2022-08-19T06:29:06.921Z,52.33
2022-08-19T06:31:08.837Z,52.21
2022-08-19T06:33:10.352Z,52.60
2022-08-19T06:35:12.377Z,52.58
2022-08-19T06:37:15.256Z,52.39
2022-08-19T06:39:25.495Z,52.69
2022-08-19T06:41:28.050Z,52.28
2022-08-19T06:43:29.610Z,52.10
2022-08-19T06:45:34.934Z,52.26
2022-08-19T06:47:37.479Z,52.51
2022-08-19T06:49:40.195Z,52.45
2022-08-19T06:51:48.636Z,52.75
2022-08-19T06:53:53.447Z,52.12
2022-08-19T06:56:00.931Z,52.39
2022-08-19T06:58:04.751Z,52.20
2022-08-19T07:00:13.051Z,52.23
2022-08-19T07:02:15.118Z,52.61
2022-08-19T07:04:21.054Z,52.81
2022-08-19T07:08:45.800Z,52.64
2022-08-19T07:10:50.125Z,52.41
2022-08-19T07:12:51.929Z,52.53
2022-08-19T07:14:53.982Z,52.31
2022-08-19T07:16:58.131Z,52.34
2022-08-19T07:19:00.268Z,52.16
2022-08-19T07:21:17.397Z,52.22
2022-08-19T07:23:19.203Z,52.18
2022-08-19T07:25:22.923Z,52.01
2022-08-19T07:27:34.990Z,52.37
2022-08-19T07:29:37.339Z,52.28
2022-08-19T07:31:39.567Z,52.20
2022-08-19T07:33:44.278Z,52.05
2022-08-19T07:35:45.902Z,52.54
2022-08-19T07:37:47.547Z,52.10
2022-08-19T07:39:49.217Z,51.92
2022-08-19T07:41:51.570Z,52.25
2022-08-19T07:43:54.225Z,51.89
2022-08-19T07:45:58.159Z,51.90
2022-08-19T07:48:00.613Z,52.09
2022-08-19T07:50:05.326Z,52.19
2022-08-19T07:52:10.972Z,51.85
2022-08-19T07:54:12.781Z,52.20
2022-08-19T07:56:15.752Z,51.88
2022-08-19T07:58:20.043Z,52.27
2022-08-19T08:00:24.283Z,51.94
2022-08-19T08:02:26.389Z,51.97
2022-08-19T08:04:48.251Z,52.07
2022-08-19T08:07:08.361Z,51.99
2022-08-19T08:09:13.589Z,52.20
2022-08-19T08:11:21.070Z,52.32
2022-08-19T08:13:22.615Z,52.30
2022-08-19T08:15:25.118Z,52.26
2022-08-19T08:17:48.509Z,52.01
2022-08-19T08:19:51.921Z,51.94
2022-08-19T08:21:58.742Z,51.80
2022-08-19T08:26:07.199Z,51.74
2022-08-19T08:28:11.456Z,52.00
2022-08-19T08:30:24.360Z,52.14
2022-08-19T08:32:26.105Z,52.27
2022-08-19T08:34:28.140Z,51.99
2022-08-19T08:36:29.924Z,51.67
2022-08-19T08:38:38.362Z,52.02
2022-08-19T08:41:07.632Z,52.19
2022-08-19T08:43:32.383Z,52.18
2022-08-19T08:45:42.473Z,51.57
2022-08-19T08:47:48.705Z,51.99
2022-08-19T08:49:54.681Z,51.94
2022-08-19T08:52:32.045Z,51.88
2022-08-19T08:54:40.632Z,52.05
2022-08-19T08:56:54.019Z,51.68
2022-08-19T08:59:07.928Z,51.75
2022-08-19T09:01:12.308Z,52.04
2022-08-19T09:03:24.334Z,51.68
2022-08-19T09:05:41.481Z,52.16
2022-08-19T09:08:03.709Z,51.61
2022-08-19T09:10:21.355Z,51.78
2022-08-19T09:13:04.231Z,51.91
2022-08-19T09:15:14.795Z,51.62
2022-08-19T09:17:16.422Z,51.70
2022-08-19T09:19:22.489Z,51.66
2022-08-19T09:21:32.994Z,51.76
2022-08-19T09:23:36.714Z,51.64
2022-08-19T09:25:38.564Z,51.38
2022-08-19T09:27:43.706Z,51.46
2022-08-19T09:29:45.761Z,51.62
2022-08-19T09:31:48.679Z,51.47
2022-08-19T09:33:52.214Z,51.52
2022-08-19T09:36:08.364Z,51.21
2022-08-19T09:38:10.517Z,51.21
2022-08-19T09:40:13.556Z,51.04
2022-08-19T09:42:16.477Z,50.85
2022-08-19T09:44:31.508Z,51.26
2022-08-19T09:46:33.181Z,50.87
2022-08-19T09:48:35.093Z,51.12
2022-08-19T09:50:51.318Z,50.78
2022-08-19T09:52:56.982Z,51.09
2022-08-19T09:54:59.608Z,51.26
2022-08-19T09:57:03.801Z,51.11
2022-08-19T09:59:10.346Z,50.75
2022-08-19T10:01:21.930Z,50.80
2022-08-19T10:03:25.567Z,50.87
2022-08-19T10:05:50.304Z,50.63
2022-08-19T10:07:52.014Z,51.00
2022-08-19T10:09:53.869Z,50.97
2022-08-19T10:11:55.556Z,51.06
2022-08-19T10:13:57.428Z,50.70
2022-08-19T10:16:08.712Z,51.12
2022-08-19T10:18:12.452Z,51.04
2022-08-19T10:20:14.047Z,50.70
2022-08-19T10:22:16.378Z,51.02
2022-08-19T10:24:17.928Z,50.86
2022-08-19T10:26:24.177Z,51.10
2022-08-19T10:28:28.800Z,50.92
2022-08-19T10:30:32.148Z,50.81
2022-08-19T10:32:34.619Z,51.05
2022-08-19T10:34:38.070Z,50.86
2022-08-19T10:37:00.627Z,50.49
2022-08-19T10:39:09.354Z,50.62
2022-08-19T10:41:14.443Z,50.56
2022-08-19T10:43:17.237Z,50.45
2022-08-19T10:45:20.232Z,50.45
2022-08-19T10:47:25.657Z,50.41
2022-08-19T10:49:28.126Z,49.99
2022-08-19T10:51:49.575Z,50.25
2022-08-19T10:53:52.041Z,50.06
2022-08-19T10:56:12.187Z,50.13
2022-08-19T10:58:15.589Z,49.83
2022-08-19T11:00:17.541Z,50.10
2022-08-19T11:02:19.202Z,49.70
2022-08-19T11:04:21.477Z,49.70
2022-08-19T11:06:32.921Z,49.52
2022-08-19T11:08:38.319Z,49.43
2022-08-19T11:10:43.753Z,49.52
2022-08-19T11:12:55.285Z,49.79
2022-08-19T11:14:56.966Z,49.47
2022-08-19T11:16:58.510Z,49.81
2022-08-19T11:19:00.397Z,49.57
2022-08-19T11:21:21.178Z,49.59
2022-08-19T11:23:22.756Z,49.41
2022-08-19T11:25:24.534Z,49.88
2022-08-19T11:27:26.178Z,49.81
2022-08-19T11:29:28.894Z,49.58
2022-08-19T11:31:33.205Z,49.45
2022-08-19T11:33:34.927Z,49.43
2022-08-19T11:35:40.784Z,49.32
2022-08-19T11:37:42.643Z,49.42
2022-08-19T11:39:44.339Z,49.57
2022-08-19T11:41:55.290Z,49.89
2022-08-19T11:43:56.905Z,49.60
2022-08-19T11:45:58.973Z,49.82
2022-08-19T11:48:00.551Z,49.54
2022-08-19T11:50:02.195Z,49.66
2022-08-19T11:52:04.136Z,49.69
2022-08-19T11:54:07.011Z,49.72
2022-08-19T11:56:09.533Z,49.38
2022-08-19T11:58:19.023Z,49.47
2022-08-19T12:00:20.963Z,49.65
2022-08-19T12:02:22.893Z,49.80
2022-08-19T12:04:24.705Z,49.59
2022-08-19T12:06:29.623Z,50.02
2022-08-19T12:08:31.836Z,49.77
2022-08-19T12:10:34.172Z,49.76
2022-08-19T12:12:36.092Z,49.49
2022-08-19T12:14:37.755Z,49.55
2022-08-19T12:16:42.734Z,49.99
2022-08-19T12:18:52.184Z,49.54
2022-08-19T12:20:57.517Z,49.52
2022-08-19T12:22:59.070Z,49.83
2022-08-19T12:25:01.746Z,49.95
2022-08-19T12:27:04.007Z,49.83
2022-08-19T12:29:06.275Z,50.11
2022-08-19T12:31:08.815Z,49.88
2022-08-19T12:33:11.470Z,50.03
2022-08-19T12:35:13.256Z,50.37
2022-08-19T12:37:14.971Z,50.41
2022-08-19T12:39:16.481Z,50.32
2022-08-19T12:41:19.625Z,50.23
2022-08-19T12:43:21.651Z,50.63
2022-08-19T12:45:23.748Z,50.77
2022-08-19T12:47:27.363Z,51.20
2022-08-19T12:49:52.443Z,50.91
2022-08-19T12:51:53.354Z,51.51
2022-08-19T12:53:54.884Z,51.08
2022-08-19T12:55:58.237Z,51.51
2022-08-19T12:58:02.432Z,51.81
2022-08-19T13:00:12.323Z,51.84
2022-08-19T13:02:13.793Z,51.39
2022-08-19T13:04:16.221Z,51.85
2022-08-19T13:06:20.226Z,51.61
2022-08-19T13:08:22.006Z,51.75
2022-08-19T13:10:28.799Z,52.15
2022-08-19T13:12:30.448Z,52.03
2022-08-19T13:14:32.382Z,52.39
2022-08-19T13:16:35.499Z,52.35
2022-08-19T13:18:37.493Z,52.30
2022-08-19T13:20:41.681Z,52.46
2022-08-19T13:22:43.623Z,52.66
2022-08-19T13:24:47.485Z,52.52
2022-08-19T13:26:49.307Z,52.90
2022-08-19T13:29:09.602Z,52.66
2022-08-19T13:31:30.005Z,52.75
2022-08-19T13:33:33.092Z,52.87
2022-08-19T13:35:35.082Z,53.01
2022-08-19T13:37:42.754Z,52.51
2022-08-19T13:39:45.937Z,52.91
2022-08-19T13:41:49.040Z,52.81
2022-08-19T13:43:50.606Z,52.91
2022-08-19T13:45:56.436Z,53.21
2022-08-19T13:47:59.703Z,53.09
2022-08-19T13:50:04.333Z,53.08
2022-08-19T13:52:06.756Z,53.41
2022-08-19T13:54:09.452Z,53.33
2022-08-19T13:56:14.802Z,53.40
2022-08-19T13:58:16.336Z,52.93
2022-08-19T14:00:19.247Z,52.84
2022-08-19T14:02:21.363Z,53.20
2022-08-19T14:04:23.026Z,52.94
2022-08-19T14:06:24.682Z,53.04
2022-08-19T14:08:28.786Z,52.71
2022-08-19T14:10:32.609Z,52.96
2022-08-19T14:12:34.454Z,52.44
2022-08-19T14:14:40.369Z,52.50
2022-08-19T14:16:42.155Z,52.79
2022-08-19T14:18:44.433Z,52.88
2022-08-19T14:20:46.482Z,52.46
2022-08-19T14:22:49.154Z,52.62
2022-08-19T14:24:51.411Z,52.85
2022-08-19T14:26:53.173Z,52.66
2022-08-19T14:28:58.385Z,52.43
2022-08-19T14:31:00.200Z,52.41
2022-08-19T14:33:02.864Z,52.68
2022-08-19T14:35:06.239Z,52.88
2022-08-19T14:37:08.885Z,52.89
2022-08-19T14:39:15.794Z,52.45
2022-08-19T14:41:20.486Z,52.65
2022-08-19T14:43:23.180Z,52.54
2022-08-19T14:45:24.673Z,53.02
2022-08-19T14:47:27.750Z,52.71
2022-08-19T14:49:35.364Z,52.87
2022-08-19T14:51:47.928Z,52.97
2022-08-19T14:53:49.877Z,53.29
2022-08-19T14:55:52.042Z,53.35
2022-08-19T14:57:53.648Z,53.12
2022-08-19T14:59:55.262Z,53.13
2022-08-19T15:01:56.901Z,53.29
2022-08-19T15:03:58.465Z,53.28
2022-08-19T15:06:01.671Z,53.11
2022-08-19T15:08:04.837Z,53.68
2022-08-19T15:10:07.959Z,53.22
2022-08-19T15:12:09.594Z,53.63
2022-08-19T15:14:11.118Z,53.41
2022-08-19T15:16:18.402Z,53.45
2022-08-19T15:18:21.373Z,53.47
2022-08-19T15:20:23.608Z,53.64
2022-08-19T15:22:25.161Z,53.68
2022-08-19T15:24:27.883Z,53.87
2022-08-19T15:26:33.508Z,53.46
2022-08-19T15:28:36.971Z,53.78
2022-08-19T15:30:40.777Z,53.54
2022-08-19T15:32:44.263Z,53.64
2022-08-19T15:34:49.878Z,53.85
2022-08-19T15:36:55.099Z,53.83
2022-08-19T15:38:57.221Z,53.82
2022-08-19T15:41:18.967Z,53.74
2022-08-19T15:43:23.789Z,53.61
2022-08-19T15:45:32.580Z,54.11
2022-08-19T15:47:35.472Z,53.67
2022-08-19T15:49:37.257Z,54.07
2022-08-19T15:51:40.539Z,54.23
2022-08-19T15:53:43.114Z,54.18
2022-08-19T15:55:46.215Z,54.17
2022-08-19T15:58:06.707Z,53.98
2022-08-19T16:00:28.731Z,53.95
2022-08-19T16:02:48.933Z,54.06
2022-08-19T16:05:13.943Z,54.14
2022-08-19T16:07:15.552Z,54.24
2022-08-19T16:09:29.044Z,54.10
2022-08-19T16:11:39.491Z,54.35
2022-08-19T16:13:42.224Z,54.31
2022-08-19T16:15:44.927Z,54.20
2022-08-19T16:17:55.471Z,54.61
2022-08-19T16:19:58.812Z,54.48
2022-08-19T16:22:00.495Z,54.32
2022-08-19T16:24:06.759Z,54.28
2022-08-19T16:26:09.540Z,54.46
2022-08-19T16:28:11.165Z,54.67
2022-08-19T16:30:15.564Z,54.40
2022-08-19T16:32:17.255Z,54.63
2022-08-19T16:34:19.020Z,54.63
2022-08-19T16:36:24.631Z,54.60
2022-08-19T16:38:27.664Z,54.78
2022-08-19T16:40:29.736Z,54.53
2022-08-19T16:42:31.478Z,54.70
2022-08-19T16:44:32.980Z,54.99
2022-08-19T16:46:34.963Z,54.96
2022-08-19T16:48:42.873Z,54.68
2022-08-19T16:50:49.561Z,54.83
2022-08-19T16:52:51.950Z,54.58
2022-08-19T16:54:53.970Z,55.07
2022-08-19T16:56:56.211Z,54.65
2022-08-19T16:58:59.702Z,55.17
2022-08-19T17:01:07.201Z,54.83
2022-08-19T17:03:14.731Z,55.11
2022-08-19T17:05:17.017Z,54.72
2022-08-19T17:07:20.092Z,54.97
2022-08-19T17:09:26.057Z,54.89
2022-08-19T17:11:30.014Z,54.96
2022-08-19T17:13:31.642Z,54.88
2022-08-19T17:15:33.464Z,55.05
2022-08-19T17:17:35.820Z,55.01
2022-08-19T17:19:39.397Z,55.01
2022-08-19T17:21:41.220Z,55.21
2022-08-19T17:23:44.200Z,54.96
2022-08-19T17:25:46.155Z,55.07
2022-08-19T17:27:47.727Z,54.86
2022-08-19T17:29:49.397Z,55.12
2022-08-19T17:31:51.349Z,55.26
2022-08-19T17:33:53.011Z,55.08
2022-08-19T17:35:56.903Z,55.11
2022-08-19T17:38:02.930Z,55.18
2022-08-19T17:40:07.593Z,55.32
2022-08-19T17:42:10.744Z,55.09
2022-08-19T17:44:12.308Z,55.09
2022-08-19T17:46:18.689Z,55.33
2022-08-19T17:48:20.505Z,55.32
2022-08-19T17:50:23.517Z,55.49
2022-08-19T17:52:25.809Z,55.36
2022-08-19T17:54:33.339Z,55.16
2022-08-19T17:56:35.655Z,55.26
2022-08-19T17:58:40.468Z,55.24
2022-08-19T18:00:53.627Z,55.47
2022-08-19T18:02:58.659Z,55.31
2022-08-19T18:05:00.253Z,55.43
2022-08-19T18:07:04.279Z,55.42
2022-08-19T18:09:06.563Z,55.50
2022-08-19T18:11:09.249Z,55.44
2022-08-19T18:13:17.739Z,55.34
2022-08-19T18:15:20.719Z,55.22
2022-08-19T18:17:24.473Z,55.21
2022-08-19T18:19:26.884Z,55.56
2022-08-19T18:21:42.634Z,55.52
2022-08-19T18:23:46.090Z,55.49
2022-08-19T18:25:47.989Z,55.52
2022-08-19T18:27:54.703Z,55.64
2022-08-19T18:29:59.000Z,55.52
2022-08-19T18:32:00.689Z,55.66
2022-08-19T18:34:02.237Z,55.80
2022-08-19T18:36:04.590Z,55.63
2022-08-19T18:38:29.904Z,55.74
2022-08-19T18:40:50.050Z,55.69
2022-08-19T18:43:10.681Z,55.50
2022-08-19T18:45:30.960Z,55.85
2022-08-19T18:47:51.223Z,55.89
2022-08-19T18:49:52.943Z,55.76
2022-08-19T18:51:56.620Z,55.64
2022-08-19T18:53:59.724Z,55.64
2022-08-19T18:56:02.480Z,55.69
2022-08-19T18:58:04.569Z,55.56
2022-08-19T19:00:07.542Z,55.80
2022-08-19T19:02:11.049Z,55.89
2022-08-19T19:04:13.499Z,55.70
2022-08-19T19:06:27.538Z,55.82
2022-08-19T19:08:29.382Z,55.96
2022-08-19T19:10:31.239Z,55.86
2022-08-19T19:12:36.484Z,55.87
2022-08-19T19:14:49.770Z,55.83
2022-08-19T19:16:52.229Z,55.82
2022-08-19T19:18:53.862Z,55.95
2022-08-19T19:20:56.707Z,55.97
2022-08-19T19:22:58.583Z,55.99
2022-08-19T19:25:02.127Z,55.90
2022-08-19T19:27:06.952Z,55.96
2022-08-19T19:29:08.566Z,55.91
2022-08-19T19:31:13.484Z,55.91
2022-08-19T19:33:15.422Z,55.77
2022-08-19T19:35:17.175Z,55.86
2022-08-19T19:37:19.322Z,56.01
2022-08-19T19:39:30.564Z,56.17
2022-08-19T19:41:43.010Z,55.85
2022-08-19T19:43:44.670Z,56.12
2022-08-19T19:45:48.367Z,55.92
2022-08-19T19:47:50.223Z,56.26
2022-08-19T19:50:13.310Z,56.23
2022-08-19T19:52:14.101Z,56.12
2022-08-19T19:54:15.963Z,56.10
2022-08-19T19:56:17.440Z,56.10
2022-08-19T19:58:21.325Z,56.03
2022-08-19T20:00:30.596Z,56.08
2022-08-19T20:02:32.150Z,55.98
2022-08-19T20:04:33.782Z,56.23
2022-08-19T20:06:36.333Z,56.09
2022-08-19T20:08:56.673Z,56.52
2022-08-19T20:11:01.605Z,56.29
2022-08-19T20:13:04.609Z,56.21
2022-08-19T20:15:07.804Z,56.37
2022-08-19T20:17:09.249Z,56.31
2022-08-19T20:19:13.154Z,56.21
2022-08-19T20:21:14.671Z,56.32
2022-08-19T20:23:23.665Z,56.30
2022-08-19T20:25:25.299Z,56.27
2022-08-19T20:27:26.850Z,56.36
2022-08-19T20:29:39.270Z,56.34
2022-08-19T20:31:55.143Z,56.16
2022-08-19T20:33:59.921Z,56.35
2022-08-19T20:36:01.661Z,56.24
2022-08-19T20:38:08.689Z,56.39
2022-08-19T20:40:13.056Z,56.44
2022-08-19T20:42:14.846Z,56.28
2022-08-19T20:44:16.446Z,56.49
2022-08-19T20:46:18.398Z,56.22
2022-08-19T20:48:20.166Z,56.46
2022-08-19T20:50:21.988Z,56.48
2022-08-19T20:52:23.525Z,56.52
2022-08-19T20:54:26.210Z,56.57
2022-08-19T20:56:28.252Z,56.49
2022-08-19T20:58:31.521Z,56.55
2022-08-19T21:00:33.415Z,56.56
2022-08-19T21:02:35.284Z,56.38
2022-08-19T21:04:36.989Z,56.45
2022-08-19T21:06:39.922Z,56.47
2022-08-19T21:08:43.930Z,56.75
2022-08-19T21:10:48.048Z,56.45
2022-08-19T21:12:50.124Z,56.61
2022-08-19T21:14:53.865Z,56.44
2022-08-19T21:16:55.995Z,56.57
2022-08-19T21:18:57.732Z,56.84
2022-08-19T21:20:59.354Z,56.63
2022-08-19T21:23:04.901Z,56.61
2022-08-19T21:25:07.261Z,56.63
2022-08-19T21:27:08.816Z,56.69
2022-08-19T21:29:10.583Z,56.63
2022-08-19T21:31:12.389Z,56.57
2022-08-19T21:33:13.971Z,56.69
2022-08-19T21:35:15.802Z,56.62
2022-08-19T21:37:24.773Z,56.68
2022-08-19T21:39:27.119Z,56.54
2022-08-19T21:41:29.602Z,56.69
2022-08-19T21:43:31.864Z,56.56
2022-08-19T21:45:33.686Z,56.72
2022-08-19T21:47:35.370Z,56.66
2022-08-19T21:49:36.976Z,56.64
2022-08-19T21:51:38.562Z,56.81
2022-08-19T21:53:40.374Z,56.74
2022-08-19T21:55:52.808Z,56.74
2022-08-19T21:57:55.495Z,56.72
2022-08-19T21:59:57.435Z,56.69
2022-08-19T22:02:15.728Z,56.67
2022-08-19T22:04:20.833Z,56.73
2022-08-19T22:06:23.030Z,56.75
2022-08-19T22:08:26.360Z,56.60
2022-08-19T22:10:31.039Z,56.74
2022-08-19T22:12:35.374Z,56.63
2022-08-19T22:14:38.250Z,56.58
2022-08-19T22:16:39.910Z,56.37
2022-08-19T22:18:41.581Z,56.70
2022-08-19T22:20:43.580Z,56.63
2022-08-19T22:22:57.986Z,56.64
2022-08-19T22:25:13.704Z,56.77
2022-08-19T22:27:30.847Z,56.52
2022-08-19T22:29:34.055Z,56.77
2022-08-19T22:31:37.489Z,56.44
2022-08-19T22:33:39.261Z,56.60
2022-08-19T22:35:41.894Z,56.63
2022-08-19T22:37:43.651Z,56.74
2022-08-19T22:39:45.513Z,56.69
2022-08-19T22:41:47.137Z,56.60
2022-08-19T22:43:48.909Z,56.63
2022-08-19T22:45:52.400Z,56.84
2022-08-19T22:47:54.526Z,56.67
2022-08-19T22:49:56.353Z,56.67
2022-08-19T22:52:19.035Z,56.74
2022-08-19T22:54:20.754Z,56.68
2022-08-19T22:56:22.536Z,56.82
2022-08-19T22:58:27.856Z,56.91
2022-08-19T23:00:31.478Z,56.74
2022-08-19T23:02:52.326Z,56.71
2022-08-19T23:04:54.981Z,56.73
2022-08-19T23:06:56.586Z,56.74
2022-08-19T23:08:58.357Z,56.71
2022-08-19T23:10:59.991Z,56.76
2022-08-19T23:13:01.971Z,56.65
2022-08-19T23:15:17.191Z,56.75
2022-08-19T23:17:20.566Z,56.72
2022-08-19T23:19:22.645Z,56.68
2022-08-19T23:21:26.447Z,56.92
2022-08-19T23:23:28.428Z,56.90
2022-08-19T23:25:32.463Z,56.76
2022-08-19T23:27:52.393Z,56.67
2022-08-19T23:30:12.529Z,56.77
2022-08-19T23:32:18.461Z,56.83
2022-08-19T23:34:20.012Z,56.83
2022-08-19T23:36:22.763Z,56.92
2022-08-19T23:38:24.940Z,57.01
2022-08-19T23:40:27.000Z,57.00
2022-08-19T23:42:28.863Z,57.05
2022-08-19T23:44:30.421Z,57.06
2022-08-19T23:46:32.316Z,56.96
2022-08-19T23:48:48.170Z,56.97
2022-08-19T23:50:50.009Z,57.26
2022-08-19T23:52:54.745Z,57.00
2022-08-19T23:55:00.836Z,57.18
2022-08-19T23:57:02.397Z,57.09
2022-08-19T23:59:14.996Z,57.24
